sensor_id;sensor_type;location;lat;lon;timestamp;pressure;altitude;pressure_sealevel;temperature;humidity
22649;BME280;11491;41.942;24.220;2023-02-12T00:00:05;90543.88;;;-7.20;66.71
22649;BME280;11491;41.942;24.220;2023-02-12T00:02:32;90546.28;;;-7.06;66.49
22649;BME280;11491;41.942;24.220;2023-02-12T00:04:59;90547.88;;;-7.05;66.90
22649;BME280;11491;41.942;24.220;2023-02-12T00:07:29;90561.34;;;-6.97;67.51
22649;BME280;11491;41.942;24.220;2023-02-12T00:09:56;90558.56;;;-6.72;66.43
22649;BME280;11491;41.942;24.220;2023-02-12T00:12:24;90554.94;;;-6.59;65.23
22649;BME280;11491;41.942;24.220;2023-02-12T00:14:51;90553.69;;;-6.56;65.29
22649;BME280;11491;41.942;24.220;2023-02-12T00:17:17;90559.81;;;-6.62;65.87
22649;BME280;11491;41.942;24.220;2023-02-12T00:19:45;90549.84;;;-6.54;65.76
22649;BME280;11491;41.942;24.220;2023-02-12T00:22:12;90549.97;;;-6.37;65.18
22649;BME280;11491;41.942;24.220;2023-02-12T00:24:39;90537.31;;;-6.45;65.59
22649;BME280;11491;41.942;24.220;2023-02-12T00:27:06;90547.28;;;-6.30;65.56
22649;BME280;11491;41.942;24.220;2023-02-12T00:29:34;90548.84;;;-6.17;65.33
22649;BME280;11491;41.942;24.220;2023-02-12T00:32:00;90540.88;;;-5.99;65.01
22649;BME280;11491;41.942;24.220;2023-02-12T00:34:27;90523.69;;;-6.00;64.37
22649;BME280;11491;41.942;24.220;2023-02-12T00:36:54;90527.22;;;-5.77;64.27
22649;BME280;11491;41.942;24.220;2023-02-12T00:39:21;90535.63;;;-5.75;63.86
22649;BME280;11491;41.942;24.220;2023-02-12T00:41:47;90530.97;;;-5.73;63.55
22649;BME280;11491;41.942;24.220;2023-02-12T00:44:14;90527.44;;;-5.67;63.20
22649;BME280;11491;41.942;24.220;2023-02-12T00:46:42;90528.03;;;-5.77;63.83
22649;BME280;11491;41.942;24.220;2023-02-12T00:49:09;90519.44;;;-5.89;64.84
22649;BME280;11491;41.942;24.220;2023-02-12T00:51:36;90504.84;;;-5.90;65.09
22649;BME280;11491;41.942;24.220;2023-02-12T00:54:03;90520.50;;;-6.02;64.69
22649;BME280;11491;41.942;24.220;2023-02-12T00:56:29;90510.19;;;-5.97;64.69
22649;BME280;11491;41.942;24.220;2023-02-12T00:58:56;90507.59;;;-5.97;64.98
22649;BME280;11491;41.942;24.220;2023-02-12T01:01:23;90498.94;;;-5.86;65.05
22649;BME280;11491;41.942;24.220;2023-02-12T01:03:51;90494.84;;;-5.81;65.01
22649;BME280;11491;41.942;24.220;2023-02-12T01:06:18;90482.31;;;-6.25;66.12
22649;BME280;11491;41.942;24.220;2023-02-12T01:08:45;90468.94;;;-6.29;66.61
22649;BME280;11491;41.942;24.220;2023-02-12T01:11:12;90472.44;;;-6.23;66.75
22649;BME280;11491;41.942;24.220;2023-02-12T01:13:39;90444.50;;;-6.28;66.64
22649;BME280;11491;41.942;24.220;2023-02-12T01:16:14;90452.97;;;-6.09;66.65
22649;BME280;11491;41.942;24.220;2023-02-12T01:18:41;90457.91;;;-6.07;67.07
22649;BME280;11491;41.942;24.220;2023-02-12T01:21:11;90442.66;;;-6.15;66.84
22649;BME280;11491;41.942;24.220;2023-02-12T01:23:38;90452.81;;;-6.02;66.18
22649;BME280;11491;41.942;24.220;2023-02-12T01:26:05;90448.56;;;-5.91;66.17
22649;BME280;11491;41.942;24.220;2023-02-12T01:28:35;90449.34;;;-5.91;65.91
22649;BME280;11491;41.942;24.220;2023-02-12T01:31:07;90448.88;;;-5.88;66.30
22649;BME280;11491;41.942;24.220;2023-02-12T01:33:33;90450.94;;;-5.90;65.97
22649;BME280;11491;41.942;24.220;2023-02-12T01:36:00;90451.13;;;-5.79;65.22
22649;BME280;11491;41.942;24.220;2023-02-12T01:38:28;90456.53;;;-5.98;65.45
22649;BME280;11491;41.942;24.220;2023-02-12T01:41:01;90454.94;;;-5.99;65.49
22649;BME280;11491;41.942;24.220;2023-02-12T01:43:28;90464.03;;;-5.85;64.86
22649;BME280;11491;41.942;24.220;2023-02-12T01:45:57;90461.88;;;-5.76;64.16
22649;BME280;11491;41.942;24.220;2023-02-12T01:48:26;90464.28;;;-5.86;64.10
22649;BME280;11491;41.942;24.220;2023-02-12T01:50:54;90475.13;;;-5.77;63.57
22649;BME280;11491;41.942;24.220;2023-02-12T01:53:24;90467.19;;;-6.11;64.30
22649;BME280;11491;41.942;24.220;2023-02-12T01:55:57;90465.31;;;-6.28;64.67
22649;BME280;11491;41.942;24.220;2023-02-12T01:58:29;90449.97;;;-6.41;65.21
22649;BME280;11491;41.942;24.220;2023-02-12T02:01:00;90464.25;;;-6.55;66.38
22649;BME280;11491;41.942;24.220;2023-02-12T02:03:28;90461.63;;;-6.55;66.85
22649;BME280;11491;41.942;24.220;2023-02-12T02:05:59;90459.81;;;-6.43;66.43
22649;BME280;11491;41.942;24.220;2023-02-12T02:08:28;90457.44;;;-6.56;67.19
22649;BME280;11491;41.942;24.220;2023-02-12T02:10:56;90455.19;;;-6.64;67.55
22649;BME280;11491;41.942;24.220;2023-02-12T02:13:23;90460.59;;;-6.54;66.89
22649;BME280;11491;41.942;24.220;2023-02-12T02:16:13;90459.13;;;-6.50;66.25
22649;BME280;11491;41.942;24.220;2023-02-12T02:18:47;90458.59;;;-6.76;67.13
22649;BME280;11491;41.942;24.220;2023-02-12T02:21:34;90453.81;;;-6.79;67.40
22649;BME280;11491;41.942;24.220;2023-02-12T02:24:25;90450.88;;;-6.59;66.22
22649;BME280;11491;41.942;24.220;2023-02-12T02:27:14;90447.50;;;-6.83;66.67
22649;BME280;11491;41.942;24.220;2023-02-12T02:29:51;90450.22;;;-6.78;66.52
22649;BME280;11491;41.942;24.220;2023-02-12T02:32:26;90446.16;;;-6.97;66.79
22649;BME280;11491;41.942;24.220;2023-02-12T02:34:59;90454.28;;;-6.82;66.14
22649;BME280;11491;41.942;24.220;2023-02-12T02:37:31;90449.50;;;-7.08;67.19
22649;BME280;11491;41.942;24.220;2023-02-12T02:40:08;90447.72;;;-6.96;67.25
22649;BME280;11491;41.942;24.220;2023-02-12T02:42:40;90443.63;;;-7.16;67.81
22649;BME280;11491;41.942;24.220;2023-02-12T02:45:11;90456.19;;;-7.12;68.20
22649;BME280;11491;41.942;24.220;2023-02-12T02:47:43;90451.53;;;-7.10;67.91
22649;BME280;11491;41.942;24.220;2023-02-12T02:50:12;90450.09;;;-6.95;67.49
22649;BME280;11491;41.942;24.220;2023-02-12T02:52:47;90448.41;;;-7.12;67.89
22649;BME280;11491;41.942;24.220;2023-02-12T02:55:18;90458.00;;;-6.89;66.73
22649;BME280;11491;41.942;24.220;2023-02-12T02:57:50;90464.91;;;-6.95;67.23
22649;BME280;11491;41.942;24.220;2023-02-12T03:00:21;90460.16;;;-6.98;67.39
22649;BME280;11491;41.942;24.220;2023-02-12T03:02:55;90454.94;;;-6.98;67.65
22649;BME280;11491;41.942;24.220;2023-02-12T03:05:28;90446.38;;;-6.87;66.58
22649;BME280;11491;41.942;24.220;2023-02-12T03:07:59;90450.22;;;-6.78;65.76
22649;BME280;11491;41.942;24.220;2023-02-12T03:10:31;90443.66;;;-6.92;66.42
22649;BME280;11491;41.942;24.220;2023-02-12T03:13:01;90438.34;;;-6.85;66.74
22649;BME280;11491;41.942;24.220;2023-02-12T03:15:36;90440.25;;;-6.81;67.14
22649;BME280;11491;41.942;24.220;2023-02-12T03:18:08;90447.94;;;-6.86;66.16
22649;BME280;11491;41.942;24.220;2023-02-12T03:20:41;90435.97;;;-6.87;66.03
22649;BME280;11491;41.942;24.220;2023-02-12T03:23:11;90427.38;;;-6.99;66.84
22649;BME280;11491;41.942;24.220;2023-02-12T03:25:45;90431.69;;;-6.93;66.49
22649;BME280;11491;41.942;24.220;2023-02-12T03:28:17;90419.91;;;-6.84;65.57
22649;BME280;11491;41.942;24.220;2023-02-12T03:30:50;90431.00;;;-7.00;65.75
22649;BME280;11491;41.942;24.220;2023-02-12T03:33:26;90423.28;;;-7.19;66.85
22649;BME280;11491;41.942;24.220;2023-02-12T03:35:58;90424.44;;;-7.15;67.07
22649;BME280;11491;41.942;24.220;2023-02-12T03:38:33;90411.53;;;-7.45;67.29
22649;BME280;11491;41.942;24.220;2023-02-12T03:41:04;90415.00;;;-7.51;67.76
22649;BME280;11491;41.942;24.220;2023-02-12T03:43:39;90420.22;;;-7.39;67.91
22649;BME280;11491;41.942;24.220;2023-02-12T03:46:16;90428.91;;;-7.45;67.83
22649;BME280;11491;41.942;24.220;2023-02-12T03:48:56;90424.03;;;-7.53;68.84
22649;BME280;11491;41.942;24.220;2023-02-12T03:51:28;90428.34;;;-7.36;67.43
22649;BME280;11491;41.942;24.220;2023-02-12T03:53:59;90419.41;;;-7.51;68.05
22649;BME280;11491;41.942;24.220;2023-02-12T03:56:31;90411.56;;;-7.75;68.50
22649;BME280;11491;41.942;24.220;2023-02-12T03:58:59;90431.13;;;-7.61;69.04
22649;BME280;11491;41.942;24.220;2023-02-12T04:01:26;90427.84;;;-7.68;69.36
22649;BME280;11491;41.942;24.220;2023-02-12T04:03:56;90439.50;;;-7.59;69.18
22649;BME280;11491;41.942;24.220;2023-02-12T04:06:25;90431.13;;;-7.61;69.16
22649;BME280;11491;41.942;24.220;2023-02-12T04:08:55;90437.94;;;-7.48;68.99
22649;BME280;11491;41.942;24.220;2023-02-12T04:11:30;90448.09;;;-7.46;68.50
22649;BME280;11491;41.942;24.220;2023-02-12T04:14:17;90438.16;;;-7.49;68.62
22649;BME280;11491;41.942;24.220;2023-02-12T04:16:51;90434.63;;;-7.67;68.45
22649;BME280;11491;41.942;24.220;2023-02-12T04:19:29;90440.81;;;-7.68;69.38
22649;BME280;11491;41.942;24.220;2023-02-12T04:22:10;90439.69;;;-7.72;69.58
22649;BME280;11491;41.942;24.220;2023-02-12T04:24:47;90441.53;;;-7.61;70.01
22649;BME280;11491;41.942;24.220;2023-02-12T04:27:20;90430.44;;;-7.68;69.88
22649;BME280;11491;41.942;24.220;2023-02-12T04:29:53;90446.47;;;-7.71;70.62
22649;BME280;11491;41.942;24.220;2023-02-12T04:32:26;90436.91;;;-7.59;71.06
22649;BME280;11491;41.942;24.220;2023-02-12T04:35:00;90437.13;;;-7.60;71.45
22649;BME280;11491;41.942;24.220;2023-02-12T04:37:32;90446.53;;;-7.47;71.45
22649;BME280;11491;41.942;24.220;2023-02-12T04:40:03;90437.75;;;-7.34;71.35
22649;BME280;11491;41.942;24.220;2023-02-12T04:42:40;90447.81;;;-7.26;70.69
22649;BME280;11491;41.942;24.220;2023-02-12T04:45:08;90433.91;;;-7.08;70.92
22649;BME280;11491;41.942;24.220;2023-02-12T04:47:35;90433.72;;;-6.95;70.92
22649;BME280;11491;41.942;24.220;2023-02-12T04:50:04;90435.28;;;-6.94;71.58
22649;BME280;11491;41.942;24.220;2023-02-12T04:52:31;90445.25;;;-6.67;70.83
22649;BME280;11491;41.942;24.220;2023-02-12T04:54:58;90446.13;;;-6.50;70.33
22649;BME280;11491;41.942;24.220;2023-02-12T04:57:24;90460.91;;;-6.27;70.10
22649;BME280;11491;41.942;24.220;2023-02-12T04:59:51;90473.53;;;-6.07;69.47
22649;BME280;11491;41.942;24.220;2023-02-12T05:02:18;90464.59;;;-6.11;69.08
22649;BME280;11491;41.942;24.220;2023-02-12T05:04:45;90461.66;;;-6.03;68.44
22649;BME280;11491;41.942;24.220;2023-02-12T05:07:13;90466.41;;;-6.00;68.77
22649;BME280;11491;41.942;24.220;2023-02-12T05:09:40;90468.91;;;-6.05;69.43
22649;BME280;11491;41.942;24.220;2023-02-12T05:12:07;90473.19;;;-5.99;70.11
22649;BME280;11491;41.942;24.220;2023-02-12T05:14:33;90481.28;;;-5.83;69.98
22649;BME280;11491;41.942;24.220;2023-02-12T05:17:00;90483.22;;;-5.62;69.58
22649;BME280;11491;41.942;24.220;2023-02-12T05:19:27;90475.16;;;-5.49;69.42
22649;BME280;11491;41.942;24.220;2023-02-12T05:21:53;90481.72;;;-5.46;69.40
22649;BME280;11491;41.942;24.220;2023-02-12T05:24:22;90489.38;;;-5.39;69.02
22649;BME280;11491;41.942;24.220;2023-02-12T05:26:49;90493.00;;;-5.41;69.62
22649;BME280;11491;41.942;24.220;2023-02-12T05:29:16;90507.03;;;-5.42;69.63
22649;BME280;11491;41.942;24.220;2023-02-12T05:31:43;90513.28;;;-5.43;69.63
22649;BME280;11491;41.942;24.220;2023-02-12T05:34:10;90514.34;;;-5.44;69.08
22649;BME280;11491;41.942;24.220;2023-02-12T05:36:38;90512.81;;;-5.39;68.96
22649;BME280;11491;41.942;24.220;2023-02-12T05:39:05;90523.81;;;-5.66;70.20
22649;BME280;11491;41.942;24.220;2023-02-12T05:41:34;90532.84;;;-5.57;71.06
22649;BME280;11491;41.942;24.220;2023-02-12T05:44:01;90544.56;;;-5.43;70.57
22649;BME280;11491;41.942;24.220;2023-02-12T05:46:28;90547.28;;;-5.37;70.07
22649;BME280;11491;41.942;24.220;2023-02-12T05:48:55;90553.03;;;-5.24;69.95
22649;BME280;11491;41.942;24.220;2023-02-12T05:51:23;90550.53;;;-5.02;68.89
22649;BME280;11491;41.942;24.220;2023-02-12T05:53:54;90545.03;;;-4.88;67.52
22649;BME280;11491;41.942;24.220;2023-02-12T05:56:23;90551.00;;;-5.33;69.58
22649;BME280;11491;41.942;24.220;2023-02-12T05:58:53;90547.84;;;-5.35;70.09
22649;BME280;11491;41.942;24.220;2023-02-12T06:01:22;90559.03;;;-5.23;71.50
22649;BME280;11491;41.942;24.220;2023-02-12T06:03:48;90564.72;;;-5.09;70.20
22649;BME280;11491;41.942;24.220;2023-02-12T06:06:15;90575.38;;;-4.99;70.64
22649;BME280;11491;41.942;24.220;2023-02-12T06:08:42;90566.84;;;-4.78;69.31
22649;BME280;11491;41.942;24.220;2023-02-12T06:11:11;90568.91;;;-4.63;69.03
22649;BME280;11491;41.942;24.220;2023-02-12T06:13:38;90575.91;;;-4.51;69.22
22649;BME280;11491;41.942;24.220;2023-02-12T06:16:15;90580.81;;;-4.38;68.82
22649;BME280;11491;41.942;24.220;2023-02-12T06:18:42;90581.91;;;-4.34;69.12
22649;BME280;11491;41.942;24.220;2023-02-12T06:21:09;90570.44;;;-4.16;68.80
22649;BME280;11491;41.942;24.220;2023-02-12T06:23:36;90575.44;;;-4.15;68.31
22649;BME280;11491;41.942;24.220;2023-02-12T06:26:03;90584.28;;;-4.16;68.85
22649;BME280;11491;41.942;24.220;2023-02-12T06:28:29;90579.69;;;-4.08;68.87
22649;BME280;11491;41.942;24.220;2023-02-12T06:30:56;90581.50;;;-3.92;69.06
22649;BME280;11491;41.942;24.220;2023-02-12T06:33:24;90580.91;;;-3.77;68.16
22649;BME280;11491;41.942;24.220;2023-02-12T06:35:51;90586.09;;;-3.60;68.33
22649;BME280;11491;41.942;24.220;2023-02-12T06:38:18;90577.63;;;-3.46;67.61
22649;BME280;11491;41.942;24.220;2023-02-12T06:40:45;90577.09;;;-3.26;67.63
22649;BME280;11491;41.942;24.220;2023-02-12T06:43:11;90575.03;;;-3.23;67.47
22649;BME280;11491;41.942;24.220;2023-02-12T06:45:38;90584.66;;;-3.07;66.93
22649;BME280;11491;41.942;24.220;2023-02-12T06:48:05;90578.06;;;-2.88;67.14
22649;BME280;11491;41.942;24.220;2023-02-12T06:50:33;90573.69;;;-2.77;66.65
22649;BME280;11491;41.942;24.220;2023-02-12T06:53:00;90569.97;;;-2.54;65.75
22649;BME280;11491;41.942;24.220;2023-02-12T06:55:27;90570.09;;;-2.39;65.41
22649;BME280;11491;41.942;24.220;2023-02-12T06:57:53;90571.75;;;-2.32;65.17
22649;BME280;11491;41.942;24.220;2023-02-12T07:00:21;90571.06;;;-2.18;64.76
22649;BME280;11491;41.942;24.220;2023-02-12T07:02:51;90576.13;;;-2.11;64.65
22649;BME280;11491;41.942;24.220;2023-02-12T07:05:18;90574.75;;;-2.19;64.51
22649;BME280;11491;41.942;24.220;2023-02-12T07:07:46;90567.06;;;-2.30;64.99
22649;BME280;11491;41.942;24.220;2023-02-12T07:10:13;90567.31;;;-2.27;65.43
22649;BME280;11491;41.942;24.220;2023-02-12T07:12:40;90570.25;;;-2.23;66.47
22649;BME280;11491;41.942;24.220;2023-02-12T07:15:08;90553.56;;;-2.12;65.70
22649;BME280;11491;41.942;24.220;2023-02-12T07:17:34;90552.03;;;-2.08;65.97
22649;BME280;11491;41.942;24.220;2023-02-12T07:20:01;90561.84;;;-1.88;65.97
22649;BME280;11491;41.942;24.220;2023-02-12T07:22:28;90558.53;;;-1.73;65.59
22649;BME280;11491;41.942;24.220;2023-02-12T07:24:56;90559.13;;;-1.61;65.18
22649;BME280;11491;41.942;24.220;2023-02-12T07:27:23;90555.97;;;-1.63;65.06
22649;BME280;11491;41.942;24.220;2023-02-12T07:29:50;90549.78;;;-1.46;64.69
22649;BME280;11491;41.942;24.220;2023-02-12T07:32:17;90546.09;;;-1.45;66.16
22649;BME280;11491;41.942;24.220;2023-02-12T07:34:43;90551.38;;;-1.35;65.15
22649;BME280;11491;41.942;24.220;2023-02-12T07:37:10;90547.81;;;-1.14;64.08
22649;BME280;11491;41.942;24.220;2023-02-12T07:39:37;90552.59;;;-0.90;63.17
22649;BME280;11491;41.942;24.220;2023-02-12T07:42:05;90547.34;;;-0.90;63.31
22649;BME280;11491;41.942;24.220;2023-02-12T07:44:33;90552.63;;;-0.70;62.99
22649;BME280;11491;41.942;24.220;2023-02-12T07:46:59;90546.38;;;-0.53;62.24
22649;BME280;11491;41.942;24.220;2023-02-12T07:49:28;90545.34;;;-0.27;61.87
22649;BME280;11491;41.942;24.220;2023-02-12T07:51:54;90550.59;;;-0.06;61.05
22649;BME280;11491;41.942;24.220;2023-02-12T07:54:21;90537.44;;;0.14;58.61
22649;BME280;11491;41.942;24.220;2023-02-12T07:56:49;90539.00;;;0.20;57.83
22649;BME280;11491;41.942;24.220;2023-02-12T07:59:18;90538.19;;;0.40;58.19
22649;BME280;11491;41.942;24.220;2023-02-12T08:01:46;90538.91;;;0.67;57.30
22649;BME280;11491;41.942;24.220;2023-02-12T08:04:15;90542.06;;;0.63;57.09
22649;BME280;11491;41.942;24.220;2023-02-12T08:06:44;90528.94;;;0.53;57.39
22649;BME280;11491;41.942;24.220;2023-02-12T08:09:13;90532.53;;;0.83;58.10
22649;BME280;11491;41.942;24.220;2023-02-12T08:11:42;90531.94;;;0.96;56.77
22649;BME280;11491;41.942;24.220;2023-02-12T08:14:10;90524.06;;;0.91;57.63
22649;BME280;11491;41.942;24.220;2023-02-12T08:16:40;90530.91;;;0.97;57.71
22649;BME280;11491;41.942;24.220;2023-02-12T08:19:07;90537.28;;;0.81;58.21
22649;BME280;11491;41.942;24.220;2023-02-12T08:21:34;90531.78;;;0.67;58.12
22649;BME280;11491;41.942;24.220;2023-02-12T08:24:01;90538.84;;;0.92;58.99
22649;BME280;11491;41.942;24.220;2023-02-12T08:26:29;90551.38;;;1.11;59.32
22649;BME280;11491;41.942;24.220;2023-02-12T08:28:59;90535.53;;;1.21;58.90
22649;BME280;11491;41.942;24.220;2023-02-12T08:31:28;90545.94;;;1.41;58.43
22649;BME280;11491;41.942;24.220;2023-02-12T08:33:57;90548.75;;;1.60;57.94
22649;BME280;11491;41.942;24.220;2023-02-12T08:36:26;90546.31;;;1.69;55.98
22649;BME280;11491;41.942;24.220;2023-02-12T08:38:53;90549.88;;;1.88;55.18
22649;BME280;11491;41.942;24.220;2023-02-12T08:41:21;90518.88;;;1.75;54.09
22649;BME280;11491;41.942;24.220;2023-02-12T08:43:50;90561.34;;;2.08;55.49
22649;BME280;11491;41.942;24.220;2023-02-12T08:46:20;90557.53;;;2.24;56.13
22649;BME280;11491;41.942;24.220;2023-02-12T08:48:47;90561.59;;;2.41;54.72
22649;BME280;11491;41.942;24.220;2023-02-12T08:51:17;90560.44;;;2.52;53.17
22649;BME280;11491;41.942;24.220;2023-02-12T08:53:46;90566.91;;;2.65;53.22
22649;BME280;11491;41.942;24.220;2023-02-12T08:56:15;90570.19;;;2.80;54.02
22649;BME280;11491;41.942;24.220;2023-02-12T08:58:43;90568.47;;;2.95;53.77
22649;BME280;11491;41.942;24.220;2023-02-12T09:01:11;90580.44;;;3.11;53.18
22649;BME280;11491;41.942;24.220;2023-02-12T09:03:38;90569.31;;;3.14;54.00
22649;BME280;11491;41.942;24.220;2023-02-12T09:06:06;90573.91;;;3.28;53.81
22649;BME280;11491;41.942;24.220;2023-02-12T09:08:35;90575.34;;;3.39;54.60
22649;BME280;11491;41.942;24.220;2023-02-12T09:11:04;90579.22;;;3.04;52.60
22649;BME280;11491;41.942;24.220;2023-02-12T09:13:31;90574.13;;;2.59;54.13
22649;BME280;11491;41.942;24.220;2023-02-12T09:15:59;90574.63;;;2.61;55.27
22649;BME280;11491;41.942;24.220;2023-02-12T09:18:27;90580.22;;;2.84;55.39
22649;BME280;11491;41.942;24.220;2023-02-12T09:20:54;90584.81;;;2.97;54.01
22649;BME280;11491;41.942;24.220;2023-02-12T09:23:20;90583.25;;;2.96;54.33
22649;BME280;11491;41.942;24.220;2023-02-12T09:25:49;90578.91;;;3.05;54.46
22649;BME280;11491;41.942;24.220;2023-02-12T09:28:16;90589.88;;;3.17;54.77
22649;BME280;11491;41.942;24.220;2023-02-12T09:30:44;90583.16;;;3.06;53.94
22649;BME280;11491;41.942;24.220;2023-02-12T09:33:11;90577.06;;;2.82;55.34
22649;BME280;11491;41.942;24.220;2023-02-12T09:35:38;90584.47;;;2.79;55.52
22649;BME280;11491;41.942;24.220;2023-02-12T09:38:06;90588.53;;;2.96;55.60
22649;BME280;11491;41.942;24.220;2023-02-12T09:40:38;90593.16;;;3.09;54.90
22649;BME280;11491;41.942;24.220;2023-02-12T09:43:16;90590.44;;;3.14;54.50
22649;BME280;11491;41.942;24.220;2023-02-12T09:45:49;90557.22;;;3.08;54.37
22649;BME280;11491;41.942;24.220;2023-02-12T09:48:34;90573.34;;;3.31;54.14
22649;BME280;11491;41.942;24.220;2023-02-12T09:51:06;90586.16;;;3.42;54.44
22649;BME280;11491;41.942;24.220;2023-02-12T09:53:35;90591.22;;;3.39;54.74
22649;BME280;11491;41.942;24.220;2023-02-12T09:56:10;90582.22;;;3.40;53.89
22649;BME280;11491;41.942;24.220;2023-02-12T09:58:41;90589.41;;;3.58;54.21
22649;BME280;11491;41.942;24.220;2023-02-12T10:01:11;90576.97;;;3.78;54.31
22649;BME280;11491;41.942;24.220;2023-02-12T10:03:39;90584.97;;;4.10;54.04
22649;BME280;11491;41.942;24.220;2023-02-12T10:06:10;90588.97;;;4.27;53.02
22649;BME280;11491;41.942;24.220;2023-02-12T10:11:42;90583.81;;;4.17;52.66
22649;BME280;11491;41.942;24.220;2023-02-12T10:14:34;90596.16;;;4.07;52.17
22649;BME280;11491;41.942;24.220;2023-02-12T10:17:13;90587.91;;;4.28;52.33
22649;BME280;11491;41.942;24.220;2023-02-12T10:20:06;90597.66;;;4.46;52.54
22649;BME280;11491;41.942;24.220;2023-02-12T10:22:43;90595.00;;;4.79;51.53
22649;BME280;11491;41.942;24.220;2023-02-12T10:25:21;90589.06;;;4.87;49.47
22649;BME280;11491;41.942;24.220;2023-02-12T10:27:51;90590.53;;;4.93;50.83
22649;BME280;11491;41.942;24.220;2023-02-12T10:30:23;90583.66;;;4.92;50.29
22649;BME280;11491;41.942;24.220;2023-02-12T10:32:55;90591.84;;;5.10;49.63
22649;BME280;11491;41.942;24.220;2023-02-12T10:35:24;90586.63;;;5.05;48.39
22649;BME280;11491;41.942;24.220;2023-02-12T10:37:55;90596.81;;;4.97;47.72
22649;BME280;11491;41.942;24.220;2023-02-12T10:40:25;90589.16;;;4.96;48.68
22649;BME280;11491;41.942;24.220;2023-02-12T10:42:55;90596.03;;;5.11;48.52
22649;BME280;11491;41.942;24.220;2023-02-12T10:45:28;90591.81;;;5.24;49.66
22649;BME280;11491;41.942;24.220;2023-02-12T10:48:05;90597.03;;;5.29;49.19
22649;BME280;11491;41.942;24.220;2023-02-12T10:50:40;90585.56;;;5.33;48.81
22649;BME280;11491;41.942;24.220;2023-02-12T10:53:17;90589.38;;;5.41;49.15
22649;BME280;11491;41.942;24.220;2023-02-12T10:55:46;90590.34;;;5.31;47.68
22649;BME280;11491;41.942;24.220;2023-02-12T10:58:18;90602.13;;;4.97;49.24
22649;BME280;11491;41.942;24.220;2023-02-12T11:00:55;90606.00;;;4.86;50.34
22649;BME280;11491;41.942;24.220;2023-02-12T11:03:27;90602.47;;;4.77;50.03
22649;BME280;11491;41.942;24.220;2023-02-12T11:05:55;90607.00;;;4.90;50.17
22649;BME280;11491;41.942;24.220;2023-02-12T11:08:28;90611.31;;;4.86;49.63
22649;BME280;11491;41.942;24.220;2023-02-12T11:11:02;90606.34;;;4.99;49.88
22649;BME280;11491;41.942;24.220;2023-02-12T11:13:30;90603.50;;;5.09;49.27
22649;BME280;11491;41.942;24.220;2023-02-12T11:15:59;90612.34;;;5.18;49.58
22649;BME280;11491;41.942;24.220;2023-02-12T11:18:27;90609.78;;;5.13;49.62
22649;BME280;11491;41.942;24.220;2023-02-12T11:20:59;90605.69;;;5.21;48.20
22649;BME280;11491;41.942;24.220;2023-02-12T11:23:29;90613.91;;;5.19;48.37
22649;BME280;11491;41.942;24.220;2023-02-12T11:25:58;90617.25;;;5.11;50.17
22649;BME280;11491;41.942;24.220;2023-02-12T11:28:26;90616.88;;;5.17;50.05
22649;BME280;11491;41.942;24.220;2023-02-12T11:30:56;90606.16;;;4.95;50.93
22649;BME280;11491;41.942;24.220;2023-02-12T11:33:28;90613.47;;;4.84;51.96
22649;BME280;11491;41.942;24.220;2023-02-12T11:35:57;90616.44;;;4.96;51.49
22649;BME280;11491;41.942;24.220;2023-02-12T11:38:27;90609.56;;;4.95;50.33
22649;BME280;11491;41.942;24.220;2023-02-12T11:41:02;90619.19;;;4.91;51.89
22649;BME280;11491;41.942;24.220;2023-02-12T11:43:29;90628.38;;;4.80;52.45
22649;BME280;11491;41.942;24.220;2023-02-12T11:45:58;90627.84;;;4.64;52.59
22649;BME280;11491;41.942;24.220;2023-02-12T11:48:29;90629.50;;;4.60;52.71
22649;BME280;11491;41.942;24.220;2023-02-12T11:51:00;90629.75;;;4.45;53.14
22649;BME280;11491;41.942;24.220;2023-02-12T11:53:29;90628.31;;;4.52;54.05
22649;BME280;11491;41.942;24.220;2023-02-12T11:55:59;90626.38;;;4.72;53.89
22649;BME280;11491;41.942;24.220;2023-02-12T11:58:27;90624.66;;;4.81;52.99
22649;BME280;11491;41.942;24.220;2023-02-12T12:01:00;90621.25;;;4.62;53.33
22649;BME280;11491;41.942;24.220;2023-02-12T12:03:34;90611.00;;;4.74;52.01
22649;BME280;11491;41.942;24.220;2023-02-12T12:06:06;90625.28;;;4.92;52.31
22649;BME280;11491;41.942;24.220;2023-02-12T12:08:37;90624.59;;;5.00;52.04
22649;BME280;11491;41.942;24.220;2023-02-12T12:11:10;90631.19;;;5.03;52.13
22649;BME280;11491;41.942;24.220;2023-02-12T12:13:43;90628.22;;;4.90;52.39
22649;BME280;11491;41.942;24.220;2023-02-12T12:16:17;90632.25;;;5.02;51.69
22649;BME280;11491;41.942;24.220;2023-02-12T12:19:10;90625.66;;;4.85;51.46
22649;BME280;11491;41.942;24.220;2023-02-12T12:22:02;90624.47;;;4.91;51.86
22649;BME280;11491;41.942;24.220;2023-02-12T12:24:37;90623.09;;;4.80;52.65
22649;BME280;11491;41.942;24.220;2023-02-12T12:27:14;90629.94;;;4.81;52.09
22649;BME280;11491;41.942;24.220;2023-02-12T12:30:19;90627.38;;;4.76;52.07
22649;BME280;11491;41.942;24.220;2023-02-12T12:32:49;90625.22;;;4.45;52.59
22649;BME280;11491;41.942;24.220;2023-02-12T12:35:23;90641.06;;;4.13;53.12
22649;BME280;11491;41.942;24.220;2023-02-12T12:37:56;90639.47;;;4.12;54.36
22649;BME280;11491;41.942;24.220;2023-02-12T12:40:36;90646.91;;;4.09;55.35
22649;BME280;11491;41.942;24.220;2023-02-12T12:43:11;90635.03;;;3.88;55.46
22649;BME280;11491;41.942;24.220;2023-02-12T12:46:15;90651.16;;;3.67;56.37
22649;BME280;11491;41.942;24.220;2023-02-12T12:49:07;90656.50;;;3.62;57.00
22649;BME280;11491;41.942;24.220;2023-02-12T12:52:00;90656.09;;;3.55;56.90
22649;BME280;11491;41.942;24.220;2023-02-12T12:54:40;90659.84;;;3.49;57.76
22649;BME280;11491;41.942;24.220;2023-02-12T12:57:17;90664.72;;;3.37;57.49
22649;BME280;11491;41.942;24.220;2023-02-12T12:59:57;90670.28;;;3.35;57.39
22649;BME280;11491;41.942;24.220;2023-02-12T13:03:01;90667.94;;;3.34;58.81
22649;BME280;11491;41.942;24.220;2023-02-12T13:06:11;90672.03;;;3.45;58.23
22649;BME280;11491;41.942;24.220;2023-02-12T13:09:00;90672.34;;;3.43;57.53
22649;BME280;11491;41.942;24.220;2023-02-12T13:11:39;90673.44;;;3.61;57.68
22649;BME280;11491;41.942;24.220;2023-02-12T13:14:18;90677.00;;;3.76;57.68
22649;BME280;11491;41.942;24.220;2023-02-12T13:16:54;90684.22;;;3.89;58.38